createdAt,value
2022-12-14T00:01:30.012Z,100.00
2022-12-14T00:03:57.111Z,100.00
2022-12-14T00:06:25.867Z,100.00
2022-12-14T00:08:54.627Z,100.00
2022-12-14T00:11:25.063Z,100.00
2022-12-14T00:13:57.235Z,100.00
2022-12-14T00:16:25.842Z,100.00
2022-12-14T00:18:54.851Z,100.00
2022-12-14T00:21:22.204Z,100.00
2022-12-14T00:23:51.035Z,100.00
2022-12-14T00:26:18.872Z,100.00
2022-12-14T00:28:48.393Z,100.00
2022-12-14T00:31:16.004Z,100.00
2022-12-14T00:33:43.007Z,100.00
2022-12-14T00:36:11.525Z,100.00
2022-12-14T00:38:39.101Z,100.00
2022-12-14T00:41:05.995Z,100.00
2022-12-14T00:43:32.964Z,100.00
2022-12-14T00:45:59.706Z,100.00
2022-12-14T00:48:27.811Z,100.00
2022-12-14T00:50:55.885Z,100.00
2022-12-14T00:53:24.064Z,100.00
2022-12-14T00:55:51.216Z,100.00
2022-12-14T00:58:20.182Z,100.00
2022-12-14T01:00:48.474Z,100.00
2022-12-14T01:03:16.189Z,100.00
2022-12-14T01:05:49.119Z,100.00
2022-12-14T01:08:16.334Z,100.00
2022-12-14T01:10:43.006Z,100.00
2022-12-14T01:13:11.679Z,100.00
2022-12-14T01:15:38.458Z,100.00
2022-12-14T01:18:06.371Z,100.00
2022-12-14T01:20:33.094Z,100.00
2022-12-14T01:22:59.756Z,100.00
2022-12-14T01:25:26.641Z,100.00
2022-12-14T01:27:53.525Z,100.00
2022-12-14T01:30:20.219Z,100.00
2022-12-14T01:32:47.442Z,100.00
2022-12-14T01:35:14.531Z,100.00
2022-12-14T01:37:41.328Z,100.00
2022-12-14T01:40:08.729Z,100.00
2022-12-14T01:42:38.736Z,100.00
2022-12-14T01:45:06.424Z,100.00
2022-12-14T01:47:42.155Z,100.00
2022-12-14T01:50:17.381Z,100.00
2022-12-14T01:52:49.614Z,100.00
2022-12-14T01:55:39.982Z,100.00
2022-12-14T01:58:11.915Z,100.00
2022-12-14T02:00:38.911Z,100.00
2022-12-14T02:03:14.881Z,100.00
2022-12-14T02:05:47.079Z,100.00
2022-12-14T02:08:15.048Z,100.00
2022-12-14T02:10:42.186Z,100.00
2022-12-14T02:13:22.802Z,100.00
2022-12-14T02:15:50.695Z,100.00
2022-12-14T02:18:21.539Z,100.00
2022-12-14T02:21:10.921Z,100.00
2022-12-14T02:24:21.959Z,100.00
2022-12-14T02:27:07.537Z,100.00
2022-12-14T02:30:02.609Z,100.00
2022-12-14T02:33:07.757Z,100.00
2022-12-14T02:35:52.816Z,100.00
2022-12-14T02:38:48.034Z,100.00
2022-12-14T02:41:40.714Z,100.00
2022-12-14T02:44:34.780Z,100.00
2022-12-14T02:47:15.048Z,100.00
2022-12-14T02:50:06.697Z,100.00
2022-12-14T02:53:10.659Z,100.00
2022-12-14T02:55:46.264Z,100.00
2022-12-14T02:58:29.151Z,100.00
2022-12-14T03:00:57.087Z,100.00
2022-12-14T03:03:24.414Z,100.00
2022-12-14T03:06:02.958Z,100.00
2022-12-14T03:08:34.307Z,100.00
2022-12-14T03:11:04.731Z,100.00
2022-12-14T03:13:33.895Z,100.00
2022-12-14T03:16:03.928Z,100.00
2022-12-14T03:18:42.104Z,100.00
2022-12-14T03:21:12.386Z,100.00
2022-12-14T03:23:42.036Z,100.00
2022-12-14T03:26:11.348Z,100.00
2022-12-14T03:28:51.931Z,100.00
2022-12-14T03:31:44.693Z,100.00
2022-12-14T03:34:19.311Z,100.00
2022-12-14T03:36:53.845Z,100.00
2022-12-14T03:39:27.536Z,100.00
2022-12-14T03:42:22.241Z,100.00
2022-12-14T03:44:55.026Z,100.00
2022-12-14T03:47:40.501Z,100.00
2022-12-14T03:50:25.521Z,100.00
2022-12-14T03:53:01.027Z,100.00
2022-12-14T03:55:33.586Z,100.00
2022-12-14T03:58:32.386Z,100.00
2022-12-14T04:01:08.380Z,100.00
2022-12-14T04:03:54.615Z,100.00
2022-12-14T04:06:23.948Z,100.00
2022-12-14T04:08:57.909Z,100.00
2022-12-14T04:11:49.560Z,100.00
2022-12-14T04:14:40.380Z,100.00
2022-12-14T04:17:31.803Z,100.00
2022-12-14T04:20:09.850Z,100.00
2022-12-14T04:22:43.407Z,100.00
2022-12-14T04:25:35.525Z,100.00
2022-12-14T04:28:42.102Z,100.00
2022-12-14T04:31:11.871Z,100.00
2022-12-14T04:33:49.379Z,100.00
2022-12-14T04:36:24.984Z,100.00
2022-12-14T04:38:59.010Z,100.00
2022-12-14T04:41:32.172Z,100.00
2022-12-14T04:44:08.464Z,100.00
2022-12-14T04:46:40.512Z,100.00
2022-12-14T04:49:29.086Z,100.00
2022-12-14T04:52:07.692Z,100.00
2022-12-14T04:54:38.855Z,100.00
2022-12-14T04:57:19.306Z,100.00
2022-12-14T04:59:47.891Z,100.00
2022-12-14T05:02:22.767Z,100.00
2022-12-14T05:04:59.337Z,100.00
2022-12-14T05:07:48.832Z,100.00
2022-12-14T05:10:35.233Z,100.00
2022-12-14T05:13:10.184Z,100.00
2022-12-14T05:15:44.549Z,100.00
2022-12-14T05:18:11.646Z,100.00
2022-12-14T05:20:38.496Z,100.00
2022-12-14T05:23:05.669Z,100.00
2022-12-14T05:25:32.294Z,100.00
2022-12-14T05:27:59.182Z,100.00
2022-12-14T05:30:25.917Z,100.00
2022-12-14T05:32:53.300Z,100.00
2022-12-14T05:35:20.381Z,100.00
2022-12-14T05:37:49.542Z,100.00
2022-12-14T05:40:17.332Z,100.00
2022-12-14T05:42:46.033Z,100.00
2022-12-14T05:45:15.194Z,100.00
2022-12-14T05:47:41.926Z,100.00
2022-12-14T05:50:09.189Z,100.00
2022-12-14T05:52:35.853Z,100.00
2022-12-14T05:55:04.455Z,100.00
2022-12-14T05:57:32.113Z,100.00
2022-12-14T05:59:58.867Z,100.00
2022-12-14T06:02:25.856Z,100.00
2022-12-14T06:04:52.595Z,100.00
2022-12-14T06:07:23.100Z,100.00
2022-12-14T06:09:53.993Z,100.00
2022-12-14T06:12:20.613Z,100.00
2022-12-14T06:14:47.349Z,100.00
2022-12-14T06:17:13.972Z,100.00
2022-12-14T06:19:40.673Z,100.00
2022-12-14T06:22:07.330Z,100.00
2022-12-14T06:24:33.994Z,100.00
2022-12-14T06:27:00.717Z,100.00
2022-12-14T06:29:27.605Z,100.00
2022-12-14T06:31:54.246Z,100.00
2022-12-14T06:34:26.389Z,100.00
2022-12-14T06:36:55.107Z,100.00
2022-12-14T06:39:21.896Z,100.00
2022-12-14T06:41:51.959Z,100.00
2022-12-14T06:44:18.879Z,100.00
2022-12-14T06:46:45.615Z,100.00
2022-12-14T06:49:14.943Z,100.00
2022-12-14T06:51:42.358Z,100.00
2022-12-14T06:54:11.929Z,100.00
2022-12-14T06:56:39.172Z,100.00
2022-12-14T06:59:09.479Z,100.00
2022-12-14T07:01:37.141Z,100.00
2022-12-14T07:04:04.896Z,100.00
2022-12-14T07:06:35.698Z,100.00
2022-12-14T07:09:03.553Z,100.00
2022-12-14T07:11:30.619Z,100.00
2022-12-14T07:14:00.720Z,100.00
2022-12-14T07:16:29.416Z,100.00
2022-12-14T07:18:56.926Z,100.00
2022-12-14T07:21:24.304Z,100.00
2022-12-14T07:23:54.297Z,100.00
2022-12-14T07:26:26.291Z,100.00
2022-12-14T07:28:53.804Z,100.00
2022-12-14T07:31:22.887Z,100.00
2022-12-14T07:33:52.047Z,100.00
2022-12-14T07:36:20.454Z,100.00
2022-12-14T07:38:48.923Z,100.00
2022-12-14T07:41:23.103Z,100.00
2022-12-14T07:43:52.184Z,100.00
2022-12-14T07:46:21.903Z,100.00
2022-12-14T07:48:51.707Z,100.00
2022-12-14T07:51:23.916Z,100.00
2022-12-14T07:53:51.781Z,100.00
2022-12-14T07:56:25.088Z,100.00
2022-12-14T07:58:52.464Z,100.00
2022-12-14T08:01:20.807Z,100.00
2022-12-14T08:03:53.672Z,100.00
2022-12-14T08:06:23.066Z,100.00
2022-12-14T08:08:50.466Z,100.00
2022-12-14T08:11:18.335Z,100.00
2022-12-14T08:13:45.432Z,100.00
2022-12-14T08:16:15.268Z,100.00
2022-12-14T08:18:42.838Z,100.00
2022-12-14T08:21:11.171Z,100.00
2022-12-14T08:23:38.385Z,100.00
2022-12-14T08:26:06.977Z,100.00
2022-12-14T08:28:35.497Z,100.00
2022-12-14T08:31:07.966Z,100.00
2022-12-14T08:33:35.959Z,100.00
2022-12-14T08:36:11.098Z,100.00
2022-12-14T08:38:38.780Z,100.00
2022-12-14T08:41:10.781Z,100.00
2022-12-14T08:43:37.628Z,100.00
2022-12-14T08:46:05.140Z,100.00
2022-12-14T08:48:32.940Z,100.00
2022-12-14T08:51:07.233Z,100.00
2022-12-14T08:53:34.920Z,100.00
2022-12-14T08:56:12.626Z,100.00
2022-12-14T08:58:41.746Z,100.00
2022-12-14T09:01:16.022Z,100.00
2022-12-14T09:03:44.827Z,100.00
2022-12-14T09:06:24.460Z,100.00
2022-12-14T09:08:51.328Z,100.00
2022-12-14T09:11:19.597Z,100.00
2022-12-14T09:13:47.056Z,100.00
2022-12-14T09:16:16.784Z,100.00
2022-12-14T09:18:44.503Z,100.00
2022-12-14T09:21:11.234Z,100.00
2022-12-14T09:23:38.773Z,100.00
2022-12-14T09:26:07.809Z,100.00
2022-12-14T09:28:37.059Z,100.00
2022-12-14T09:31:06.154Z,100.00
2022-12-14T09:33:33.910Z,100.00
2022-12-14T09:36:09.063Z,100.00
2022-12-14T09:38:36.766Z,100.00
2022-12-14T09:41:20.184Z,100.00
2022-12-14T09:44:16.307Z,100.00
2022-12-14T09:47:19.135Z,100.00
2022-12-14T09:49:45.880Z,100.00
2022-12-14T09:52:19.080Z,100.00
2022-12-14T09:54:50.017Z,100.00
2022-12-14T09:57:19.580Z,99.00
2022-12-14T09:59:46.321Z,100.00
2022-12-14T10:02:31.495Z,92.07
2022-12-14T10:05:18.754Z,93.07
2022-12-14T10:08:14.682Z,98.46
2022-12-14T10:10:44.161Z,100.00
2022-12-14T10:13:27.967Z,84.42
2022-12-14T10:16:04.848Z,76.14
2022-12-14T10:18:59.693Z,76.29
2022-12-14T10:21:39.245Z,77.28
2022-12-14T10:24:11.458Z,73.11
2022-12-14T10:26:52.596Z,76.88
2022-12-14T10:29:44.002Z,66.81
2022-12-14T10:32:33.337Z,61.60
2022-12-14T10:35:12.787Z,61.11
2022-12-14T10:37:44.048Z,62.03
2022-12-14T10:40:17.536Z,59.67
2022-12-14T10:43:26.190Z,57.32
2022-12-14T10:46:20.156Z,56.14
2022-12-14T10:48:55.611Z,62.81
2022-12-14T10:51:55.597Z,66.86
2022-12-14T10:54:34.207Z,61.07
2022-12-14T10:57:01.389Z,59.69
2022-12-14T10:59:41.400Z,68.23
2022-12-14T11:02:21.593Z,64.85
2022-12-14T11:04:54.058Z,66.97
2022-12-14T11:07:34.395Z,62.28
2022-12-14T11:10:21.488Z,64.38
2022-12-14T11:13:12.928Z,66.47
2022-12-14T11:15:51.334Z,71.12
2022-12-14T11:18:18.124Z,67.48
2022-12-14T11:20:56.915Z,66.76
2022-12-14T11:23:47.102Z,63.68
2022-12-14T11:26:37.733Z,68.34
2022-12-14T11:29:15.546Z,66.14
2022-12-14T11:31:52.590Z,60.71
2022-12-14T11:34:38.275Z,59.43
2022-12-14T11:37:24.792Z,61.42
2022-12-14T11:39:54.813Z,64.58
2022-12-14T11:42:22.187Z,68.29
2022-12-14T11:44:51.220Z,67.25
2022-12-14T11:47:22.183Z,65.00
2022-12-14T11:49:52.210Z,62.17
2022-12-14T11:52:20.596Z,65.35
2022-12-14T11:54:54.136Z,64.64
2022-12-14T11:57:36.233Z,66.52
2022-12-14T12:00:22.256Z,67.00
2022-12-14T12:03:00.012Z,66.66
2022-12-14T12:05:27.901Z,70.04
2022-12-14T12:07:56.755Z,64.41
2022-12-14T12:10:37.472Z,65.24
2022-12-14T12:13:07.200Z,61.73
2022-12-14T12:15:36.910Z,65.66
2022-12-14T12:18:16.527Z,70.14
2022-12-14T12:20:53.433Z,70.59
2022-12-14T12:23:25.212Z,71.15
2022-12-14T12:25:54.623Z,70.80
2022-12-14T12:28:26.657Z,76.18
2022-12-14T12:31:00.234Z,79.51
2022-12-14T12:33:35.061Z,82.41
2022-12-14T12:36:06.008Z,88.98
2022-12-14T12:38:56.460Z,96.76
2022-12-14T12:41:42.405Z,93.89
2022-12-14T12:44:27.577Z,91.44
2022-12-14T12:47:24.820Z,89.52
2022-12-14T12:50:02.841Z,90.35
2022-12-14T12:52:36.523Z,98.96
2022-12-14T12:55:13.974Z,100.00
2022-12-14T12:57:45.013Z,100.00
2022-12-14T13:00:27.374Z,100.00
2022-12-14T13:03:23.281Z,100.00
2022-12-14T13:05:53.752Z,100.00
2022-12-14T13:08:28.786Z,100.00
2022-12-14T13:13:51.939Z,100.00
2022-12-14T13:16:30.138Z,100.00
2022-12-14T13:19:32.477Z,100.00
2022-12-14T13:21:55.030Z,100.00
2022-12-14T13:24:23.983Z,100.00
2022-12-14T13:27:05.918Z,100.00
2022-12-14T13:29:44.450Z,100.00
2022-12-14T13:32:59.488Z,100.00
2022-12-14T13:35:29.155Z,100.00
2022-12-14T13:38:35.839Z,100.00
2022-12-14T13:41:02.763Z,100.00
2022-12-14T13:44:13.638Z,100.00
2022-12-14T13:46:40.528Z,100.00
2022-12-14T13:49:17.441Z,100.00
2022-12-14T13:51:50.252Z,100.00
2022-12-14T13:54:24.143Z,100.00
2022-12-14T13:56:50.870Z,100.00
2022-12-14T13:59:39.944Z,100.00
2022-12-14T14:02:29.410Z,100.00
2022-12-14T14:05:15.032Z,100.00
2022-12-14T14:08:23.579Z,100.00
2022-12-14T14:11:02.508Z,100.00
2022-12-14T14:13:39.827Z,100.00
2022-12-14T14:16:30.869Z,100.00
2022-12-14T14:19:12.531Z,100.00
2022-12-14T14:22:06.254Z,100.00
2022-12-14T14:24:29.608Z,100.00
2022-12-14T14:27:19.866Z,100.00
2022-12-14T14:29:49.574Z,100.00
2022-12-14T14:32:35.188Z,100.00
2022-12-14T14:35:06.888Z,100.00
2022-12-14T14:37:36.578Z,100.00
2022-12-14T14:40:22.148Z,100.00
2022-12-14T14:43:18.135Z,100.00
2022-12-14T14:45:52.313Z,100.00
2022-12-14T14:48:40.049Z,100.00
2022-12-14T14:51:26.556Z,100.00
2022-12-14T14:54:44.847Z,100.00
2022-12-14T14:57:53.233Z,100.00
2022-12-14T15:00:19.978Z,100.00
2022-12-14T15:02:47.051Z,100.00
2022-12-14T15:05:42.951Z,100.00
2022-12-14T15:08:39.039Z,100.00
2022-12-14T15:11:15.672Z,100.00
2022-12-14T15:13:54.211Z,100.00
2022-12-14T15:16:24.158Z,100.00
2022-12-14T15:18:50.918Z,100.00
2022-12-14T15:21:19.310Z,100.00
2022-12-14T15:23:50.297Z,100.00
2022-12-14T15:26:24.533Z,100.00
2022-12-14T15:28:54.681Z,100.00
2022-12-14T15:31:33.167Z,100.00
2022-12-14T15:34:01.301Z,100.00
2022-12-14T15:36:38.036Z,100.00
2022-12-14T15:39:05.015Z,100.00
2022-12-14T15:41:33.272Z,100.00
2022-12-14T15:44:01.037Z,100.00
2022-12-14T15:46:35.683Z,100.00
2022-12-14T15:49:05.088Z,100.00
2022-12-14T15:51:35.524Z,100.00
2022-12-14T15:54:05.185Z,100.00
2022-12-14T15:56:40.776Z,100.00
2022-12-14T15:59:16.530Z,100.00
2022-12-14T16:01:54.411Z,100.00
2022-12-14T16:04:25.957Z,100.00
2022-12-14T16:07:09.444Z,100.00
2022-12-14T16:09:50.061Z,100.00
2022-12-14T16:12:25.369Z,100.00
2022-12-14T16:14:59.215Z,100.00
2022-12-14T16:17:36.363Z,100.00
2022-12-14T16:20:09.503Z,100.00
2022-12-14T16:22:39.694Z,100.00
2022-12-14T16:25:07.454Z,100.00
2022-12-14T16:27:42.405Z,100.00
2022-12-14T16:30:20.031Z,100.00
2022-12-14T16:32:50.284Z,100.00
2022-12-14T16:35:20.230Z,100.00
2022-12-14T16:37:50.947Z,100.00
2022-12-14T16:40:36.174Z,100.00
2022-12-14T16:43:05.032Z,100.00
2022-12-14T16:45:45.190Z,100.00
2022-12-14T16:48:22.211Z,100.00
2022-12-14T16:51:01.814Z,100.00
2022-12-14T16:53:34.986Z,100.00
2022-12-14T16:56:15.605Z,100.00
2022-12-14T16:58:52.789Z,100.00
2022-12-14T17:01:19.700Z,100.00
2022-12-14T17:03:59.318Z,100.00
2022-12-14T17:06:34.946Z,100.00
2022-12-14T17:09:01.704Z,100.00
2022-12-14T17:11:28.452Z,100.00
2022-12-14T17:13:55.099Z,100.00
2022-12-14T17:16:22.502Z,100.00
2022-12-14T17:18:49.759Z,100.00
2022-12-14T17:21:25.290Z,100.00
2022-12-14T17:23:52.433Z,100.00
2022-12-14T17:26:31.187Z,100.00
2022-12-14T17:28:58.680Z,100.00
2022-12-14T17:31:27.520Z,100.00
2022-12-14T17:33:56.694Z,100.00
2022-12-14T17:36:23.569Z,100.00
2022-12-14T17:38:50.620Z,100.00
2022-12-14T17:41:24.240Z,100.00
2022-12-14T17:43:56.648Z,100.00
2022-12-14T17:46:27.268Z,100.00
2022-12-14T17:48:54.079Z,100.00
2022-12-14T17:51:30.069Z,100.00
2022-12-14T17:53:59.073Z,100.00
2022-12-14T17:56:26.011Z,100.00
2022-12-14T17:58:52.659Z,100.00
2022-12-14T18:01:23.936Z,100.00
2022-12-14T18:03:50.903Z,100.00
2022-12-14T18:06:18.520Z,100.00
2022-12-14T18:08:46.217Z,100.00
2022-12-14T18:11:18.010Z,100.00
2022-12-14T18:13:45.492Z,100.00
2022-12-14T18:16:16.517Z,100.00
2022-12-14T18:18:44.112Z,100.00
2022-12-14T18:21:17.594Z,100.00
2022-12-14T18:23:44.780Z,100.00
2022-12-14T18:26:13.569Z,100.00
2022-12-14T18:28:43.439Z,100.00
2022-12-14T18:31:19.731Z,100.00
2022-12-14T18:33:46.436Z,100.00
2022-12-14T18:36:13.481Z,100.00
2022-12-14T18:38:40.230Z,100.00
2022-12-14T18:41:07.092Z,100.00
2022-12-14T18:43:37.682Z,100.00
2022-12-14T18:46:06.902Z,100.00
2022-12-14T18:48:33.666Z,100.00
2022-12-14T18:51:00.382Z,100.00
2022-12-14T18:53:28.137Z,100.00
2022-12-14T18:55:55.344Z,100.00
2022-12-14T18:58:24.880Z,100.00
2022-12-14T19:00:54.701Z,100.00
2022-12-14T19:03:22.890Z,100.00
2022-12-14T19:05:50.233Z,100.00
2022-12-14T19:08:17.184Z,100.00
2022-12-14T19:10:47.983Z,100.00
2022-12-14T19:13:25.674Z,100.00
2022-12-14T19:15:53.718Z,100.00
2022-12-14T19:18:20.645Z,100.00
2022-12-14T19:20:49.421Z,100.00
2022-12-14T19:23:17.855Z,100.00
2022-12-14T19:25:44.945Z,100.00
2022-12-14T19:28:30.778Z,100.00
2022-12-14T19:30:59.085Z,100.00
2022-12-14T19:33:26.944Z,100.00
2022-12-14T19:35:53.918Z,100.00
2022-12-14T19:38:20.680Z,100.00
2022-12-14T19:41:03.296Z,100.00
2022-12-14T19:43:30.796Z,100.00
2022-12-14T19:45:57.983Z,100.00
2022-12-14T19:48:25.213Z,100.00
2022-12-14T19:50:51.913Z,100.00
2022-12-14T19:53:23.827Z,100.00
2022-12-14T19:55:53.184Z,100.00
2022-12-14T19:58:25.000Z,100.00
2022-12-14T20:00:52.287Z,100.00
2022-12-14T20:03:19.099Z,100.00
2022-12-14T20:06:05.487Z,100.00
2022-12-14T20:08:34.059Z,100.00
2022-12-14T20:11:08.507Z,100.00
2022-12-14T20:13:35.399Z,100.00
2022-12-14T20:16:02.263Z,100.00
2022-12-14T20:18:30.974Z,100.00
2022-12-14T20:21:03.250Z,100.00
2022-12-14T20:23:32.923Z,100.00
2022-12-14T20:26:01.450Z,100.00
2022-12-14T20:28:28.313Z,100.00
2022-12-14T20:30:55.177Z,100.00
2022-12-14T20:33:26.501Z,100.00
2022-12-14T20:35:57.056Z,100.00
2022-12-14T20:38:23.722Z,100.00
2022-12-14T20:40:50.494Z,100.00
2022-12-14T20:43:17.360Z,100.00
2022-12-14T20:45:44.428Z,100.00
2022-12-14T20:48:11.510Z,100.00
2022-12-14T20:50:40.819Z,100.00
2022-12-14T20:53:07.819Z,100.00
2022-12-14T20:55:35.461Z,100.00
2022-12-14T20:58:02.245Z,100.00
2022-12-14T21:00:29.199Z,100.00
2022-12-14T21:02:57.617Z,100.00
2022-12-14T21:05:24.831Z,100.00
2022-12-14T21:07:52.174Z,100.00
2022-12-14T21:10:18.964Z,100.00
2022-12-14T21:12:48.059Z,100.00
2022-12-14T21:15:14.893Z,100.00
2022-12-14T21:17:41.525Z,100.00
2022-12-14T21:20:08.599Z,100.00
2022-12-14T21:22:35.463Z,100.00
2022-12-14T21:25:04.234Z,100.00
2022-12-14T21:27:32.752Z,100.00
2022-12-14T21:30:02.824Z,100.00
2022-12-14T21:32:29.638Z,100.00
2022-12-14T21:34:56.257Z,100.00
2022-12-14T21:37:23.416Z,100.00
2022-12-14T21:39:54.196Z,100.00
2022-12-14T21:42:23.808Z,100.00
2022-12-14T21:44:52.135Z,100.00
2022-12-14T21:47:22.244Z,100.00
2022-12-14T21:49:49.260Z,100.00
2022-12-14T21:52:27.167Z,100.00
2022-12-14T21:54:54.067Z,100.00
2022-12-14T21:57:42.439Z,100.00
2022-12-14T22:00:10.390Z,100.00
2022-12-14T22:02:37.240Z,100.00
2022-12-14T22:05:04.682Z,100.00
2022-12-14T22:07:33.287Z,100.00
2022-12-14T22:10:00.532Z,100.00
2022-12-14T22:12:27.603Z,100.00
2022-12-14T22:14:54.322Z,100.00
2022-12-14T22:17:21.038Z,100.00
2022-12-14T22:19:49.017Z,100.00
2022-12-14T22:22:16.856Z,100.00
2022-12-14T22:24:44.855Z,100.00
2022-12-14T22:27:12.785Z,100.00
2022-12-14T22:29:39.745Z,100.00
2022-12-14T22:32:07.157Z,100.00
2022-12-14T22:34:34.159Z,100.00
2022-12-14T22:37:00.927Z,100.00
2022-12-14T22:39:27.584Z,100.00
2022-12-14T22:41:54.334Z,100.00
2022-12-14T22:44:21.012Z,100.00
2022-12-14T22:46:47.743Z,100.00
2022-12-14T22:49:19.399Z,100.00
2022-12-14T22:51:46.489Z,100.00
2022-12-14T22:54:22.666Z,100.00
2022-12-14T22:57:02.589Z,100.00
2022-12-14T22:59:37.554Z,100.00
2022-12-14T23:02:04.406Z,100.00
2022-12-14T23:04:31.792Z,100.00
2022-12-14T23:06:58.576Z,100.00
2022-12-14T23:09:44.334Z,100.00
2022-12-14T23:12:29.916Z,100.00
2022-12-14T23:15:14.722Z,100.00
2022-12-14T23:18:00.288Z,100.00
2022-12-14T23:20:45.240Z,100.00
2022-12-14T23:23:31.238Z,100.00
2022-12-14T23:26:21.121Z,100.00
2022-12-14T23:29:06.453Z,100.00
2022-12-14T23:31:51.558Z,100.00
2022-12-14T23:34:36.922Z,100.00
2022-12-14T23:37:21.816Z,100.00
2022-12-14T23:40:06.806Z,100.00
2022-12-14T23:42:52.325Z,100.00
2022-12-14T23:45:37.667Z,100.00
2022-12-14T23:48:22.594Z,100.00
2022-12-14T23:51:07.831Z,100.00
2022-12-14T23:53:53.298Z,100.00
2022-12-14T23:56:38.230Z,100.00
2022-12-14T23:59:28.053Z,100.00
